Arnold, Missouri
Current Conditions -  °F | °C
As of 11:53 PM on Wednesday 26 Nov 2014 (Local Time) from KCPS Reporting Station
Light Snow Light Snow  
Wind Chill: 27°   Ceiling: 600
Heat Index: 34°   Visibility: 3mi
Dew Point: 32°   Wind: 8mph
Humidity: 92%   Direction: 350°N
Pressure: 30.21"   Gusts: NA
Location:  38.42°N, 90.37°W
Report Text: KCPS 270553Z AUTO 35007KT 3SM -SN BR BKN006 OVC009 01/00 A3021 RMK AO2 SNB09E35B43 CIG 003V008 SLP232 P0001 60005 T00110000 10011 20006 400281028 53036 TSNO
Loading
Personal Weather Stations






























Interactive Weather Map New forecast layout! Learn more

10-Day Weather Forecast

Advertisements
Track Severe Weather on mobile